SLJE/SJS METAR and TAF weather

Enter ICAO airport designator
Station Type Date Time Source
SLJE METAR 2020/03/21 17:00 UTC NOAA

SLJE 211700Z 00000KT 9999 BKN015 30/23 Q1013


Station Type Date Time Source
SLJE Decoded METAR 2020/03/21 17:00 UTC NOAA

San Jose De Chiquitos, Bolivia (SLJE) 17-48S 060-44W
Mar 21, 2020 - 01:00 PM EDT / 2020.03.21 1700 UTC
Wind: Calm:0
Visibility: greater than 7 mile(s):0
Sky conditions: mostly cloudy
Temperature: 86 F (30 C)
Heat index: 93.4 F (34.1 C):1
Dew Point: 73 F (23 C)
Relative Humidity: 66%
Pressure (altimeter): 29.91 in. Hg (1013 hPa)
ob: SLJE 211700Z 00000KT 9999 BKN015 30/23 Q1013
cycle: 17

Station Type Date Time Source
SLJE TAF 2009/01/07 11:00 UTC NOAA

METAR SLJE 071100Z 00000KT 9999 SKC 21/18 Q1014

Example: see airport list